createdAt,value
2022-10-23T00:00:11.810Z,15.85
2022-10-23T00:00:44.053Z,14.82
2022-10-23T00:01:39.875Z,15.13
2022-10-23T00:02:11.731Z,14.23
2022-10-23T00:02:44.033Z,14.57
2022-10-23T00:03:16.164Z,13.68
2022-10-23T00:03:50.517Z,15.38
2022-10-23T00:04:25.375Z,14.63
2022-10-23T00:04:57.194Z,15.73
2022-10-23T00:05:29.458Z,15.10
2022-10-23T00:06:04.613Z,14.45
2022-10-23T00:06:36.836Z,16.15
2022-10-23T00:07:08.674Z,14.63
2022-10-23T00:07:40.639Z,15.95
2022-10-23T00:08:12.509Z,16.25
2022-10-23T00:08:46.604Z,15.00
2022-10-23T00:09:21.443Z,15.02
2022-10-23T00:09:53.433Z,15.18
2022-10-23T00:10:27.739Z,16.00
2022-10-23T00:10:59.601Z,15.15
2022-10-23T00:11:32.575Z,14.50
2022-10-23T00:12:04.604Z,14.87
2022-10-23T00:12:36.589Z,16.25
2022-10-23T00:13:09.057Z,15.65
2022-10-23T00:13:41.423Z,17.02
2022-10-23T00:14:14.689Z,15.45
2022-10-23T00:14:46.537Z,16.12
2022-10-23T00:15:21.110Z,16.73
2022-10-23T00:16:30.518Z,14.07
2022-10-23T00:17:02.684Z,15.85
2022-10-23T00:17:35.137Z,15.52
2022-10-23T00:18:06.964Z,16.00
2022-10-23T00:18:39.121Z,15.85
2022-10-23T00:19:11.253Z,16.02
2022-10-23T00:19:43.099Z,16.02
2022-10-23T00:20:16.516Z,15.73
2022-10-23T00:20:48.355Z,15.57
2022-10-23T00:21:20.993Z,16.27
2022-10-23T00:21:52.885Z,15.13
2022-10-23T00:22:25.040Z,16.98
2022-10-23T00:22:56.864Z,16.95
2022-10-23T00:23:28.739Z,17.55
2022-10-23T00:24:00.657Z,16.30
2022-10-23T00:24:32.532Z,17.02
2022-10-23T00:25:09.009Z,17.27
2022-10-23T00:25:40.822Z,15.65
2022-10-23T00:26:16.385Z,15.38
2022-10-23T00:26:50.613Z,14.38
2022-10-23T00:27:22.447Z,14.00
2022-10-23T00:27:54.586Z,15.18
2022-10-23T00:28:26.619Z,15.63
2022-10-23T00:28:58.514Z,14.73
2022-10-23T00:29:30.465Z,15.90
2022-10-23T00:30:04.700Z,16.37
2022-10-23T00:30:36.531Z,15.98
2022-10-23T00:31:08.381Z,16.30
2022-10-23T00:31:40.367Z,15.63
2022-10-23T00:32:12.210Z,16.02
2022-10-23T00:32:44.037Z,16.67
2022-10-23T00:33:16.280Z,16.33
2022-10-23T00:33:48.336Z,15.45
2022-10-23T00:34:20.188Z,16.58
2022-10-23T00:34:52.080Z,16.25
2022-10-23T00:35:24.989Z,16.87
2022-10-23T00:35:57.168Z,16.02
2022-10-23T00:36:29.038Z,15.02
2022-10-23T00:37:00.919Z,15.00
2022-10-23T00:37:33.458Z,16.00
2022-10-23T00:38:05.365Z,15.82
2022-10-23T00:38:38.059Z,16.15
2022-10-23T00:39:09.941Z,15.60
2022-10-23T00:39:41.875Z,14.60
2022-10-23T00:40:13.745Z,15.50
2022-10-23T00:40:47.173Z,15.52
2022-10-23T00:41:28.743Z,14.85
2022-10-23T00:42:00.787Z,14.18
2022-10-23T00:42:32.655Z,14.55
2022-10-23T00:43:04.776Z,14.77
2022-10-23T00:44:00.297Z,14.52
2022-10-23T00:44:32.373Z,14.45
2022-10-23T00:45:34.390Z,15.30
2022-10-23T00:46:06.239Z,13.65
2022-10-23T00:46:40.621Z,14.15
2022-10-23T00:47:13.990Z,14.82
2022-10-23T00:47:45.885Z,14.87
2022-10-23T00:48:18.534Z,14.48
2022-10-23T00:48:50.489Z,14.55
2022-10-23T00:49:23.194Z,15.10
2022-10-23T00:49:55.460Z,15.63
2022-10-23T00:50:29.447Z,15.15
2022-10-23T00:51:02.546Z,14.43
2022-10-23T00:51:40.315Z,15.50
2022-10-23T00:52:13.572Z,13.45
2022-10-23T00:52:49.309Z,13.68
2022-10-23T00:53:22.189Z,14.70
2022-10-23T00:54:12.927Z,13.55
2022-10-23T00:54:50.233Z,13.82
2022-10-23T00:55:24.516Z,13.70
2022-10-23T00:55:57.699Z,13.80
2022-10-23T00:56:31.556Z,15.50
2022-10-23T00:57:05.648Z,14.55
2022-10-23T00:57:42.238Z,15.23
2022-10-23T00:58:15.777Z,14.55
2022-10-23T00:58:47.675Z,13.60
2022-10-23T00:59:19.538Z,14.87
2022-10-23T00:59:51.503Z,13.30
2022-10-23T01:00:27.998Z,13.15
2022-10-23T01:00:59.901Z,14.25
2022-10-23T01:01:32.134Z,13.05
2022-10-23T01:02:05.120Z,12.88
2022-10-23T01:02:37.118Z,13.27
2022-10-23T01:03:09.257Z,13.32
2022-10-23T01:03:41.414Z,12.60
2022-10-23T01:04:13.343Z,12.32
2022-10-23T01:04:46.464Z,11.90
2022-10-23T01:05:22.556Z,13.00
2022-10-23T01:06:12.510Z,12.18
2022-10-23T01:07:09.507Z,12.52
2022-10-23T01:07:45.716Z,12.82
2022-10-23T01:08:31.039Z,11.73
2022-10-23T01:09:08.772Z,12.57
2022-10-23T01:09:42.072Z,12.93
2022-10-23T01:10:53.154Z,12.55
2022-10-23T01:11:34.612Z,12.90
2022-10-23T01:12:14.134Z,12.68
2022-10-23T01:12:55.281Z,13.20
2022-10-23T01:13:39.033Z,13.10
2022-10-23T01:14:17.077Z,12.68
2022-10-23T01:15:13.771Z,12.50
2022-10-23T01:16:13.953Z,13.00
2022-10-23T01:17:17.691Z,13.38
2022-10-23T01:17:58.688Z,13.57
2022-10-23T01:18:41.889Z,14.90
2022-10-23T01:19:51.935Z,15.15
2022-10-23T01:20:38.783Z,14.90
2022-10-23T01:21:32.783Z,15.02
2022-10-23T01:22:20.241Z,15.27
2022-10-23T01:23:10.064Z,14.18
2022-10-23T01:23:49.428Z,14.38
2022-10-23T01:24:39.851Z,14.73
2022-10-23T01:25:44.888Z,15.18
2022-10-23T01:26:37.671Z,15.38
2022-10-23T01:27:21.997Z,13.93
2022-10-23T01:28:01.746Z,14.05
2022-10-23T01:29:01.490Z,13.65
2022-10-23T01:29:46.180Z,13.45
2022-10-23T01:30:18.255Z,13.10
2022-10-23T01:30:50.786Z,14.43
2022-10-23T01:31:30.789Z,13.30
2022-10-23T01:32:27.718Z,14.10
2022-10-23T01:33:36.107Z,13.10
2022-10-23T01:34:22.511Z,13.65
2022-10-23T01:35:13.999Z,13.32
2022-10-23T01:36:14.607Z,13.97
2022-10-23T01:36:50.805Z,14.20
2022-10-23T01:37:35.363Z,13.65
2022-10-23T01:38:28.120Z,14.43
2022-10-23T01:39:09.686Z,14.70
2022-10-23T01:40:24.658Z,14.57
2022-10-23T01:41:04.259Z,14.23
2022-10-23T01:41:44.207Z,14.35
2022-10-23T01:42:21.707Z,14.98
2022-10-23T01:42:58.330Z,15.98
2022-10-23T01:43:52.129Z,16.05
2022-10-23T01:44:43.228Z,14.73
2022-10-23T01:45:34.282Z,16.08
2022-10-23T01:46:10.487Z,15.85
2022-10-23T01:46:45.209Z,15.38
2022-10-23T01:47:58.129Z,14.70
2022-10-23T01:48:34.155Z,14.63
2022-10-23T01:49:10.118Z,15.75
2022-10-23T01:49:44.579Z,15.55
2022-10-23T01:50:18.866Z,14.52
2022-10-23T01:50:55.104Z,15.55
2022-10-23T01:51:31.408Z,15.63
2022-10-23T01:52:09.336Z,15.45
2022-10-23T01:52:42.023Z,16.12
2022-10-23T01:53:13.949Z,16.20
2022-10-23T01:53:49.482Z,15.88
2022-10-23T01:54:26.861Z,15.60
2022-10-23T01:55:01.621Z,15.80
2022-10-23T01:55:35.032Z,15.15
2022-10-23T01:56:15.379Z,15.45
2022-10-23T01:56:50.509Z,15.65
2022-10-23T01:57:29.848Z,15.55
2022-10-23T01:58:02.947Z,14.60
2022-10-23T01:58:45.519Z,14.85
2022-10-23T01:59:23.658Z,15.75
2022-10-23T02:00:01.566Z,15.32
2022-10-23T02:00:36.119Z,16.12
2022-10-23T02:01:11.484Z,15.95
2022-10-23T02:01:56.326Z,15.85
2022-10-23T02:02:30.446Z,16.55
2022-10-23T02:03:04.622Z,16.60
2022-10-23T02:03:39.521Z,16.52
2022-10-23T02:04:15.757Z,15.75
2022-10-23T02:05:24.739Z,15.57
2022-10-23T02:05:56.687Z,15.15
2022-10-23T02:06:29.110Z,15.05
2022-10-23T02:07:01.155Z,14.95
2022-10-23T02:07:34.030Z,14.63
2022-10-23T02:08:06.949Z,15.50
2022-10-23T02:08:39.081Z,15.95
2022-10-23T02:09:11.292Z,14.63
2022-10-23T02:09:43.817Z,15.63
2022-10-23T02:10:16.192Z,15.20
2022-10-23T02:10:51.360Z,14.48
2022-10-23T02:11:23.487Z,16.12
2022-10-23T02:12:02.131Z,15.90
2022-10-23T02:12:38.391Z,14.02
2022-10-23T02:13:39.091Z,14.45
2022-10-23T02:14:33.895Z,15.88
2022-10-23T02:15:43.256Z,15.07
2022-10-23T02:16:29.896Z,14.23
2022-10-23T02:17:15.995Z,14.15
2022-10-23T02:18:14.921Z,13.85
2022-10-23T02:18:51.959Z,13.73
2022-10-23T02:19:33.499Z,13.65
2022-10-23T02:20:18.247Z,13.00
2022-10-23T02:21:05.016Z,12.95
2022-10-23T02:21:50.211Z,12.68
2022-10-23T02:22:25.575Z,13.65
2022-10-23T02:23:05.367Z,13.15
2022-10-23T02:23:53.694Z,12.90
2022-10-23T02:24:44.028Z,12.70
2022-10-23T02:25:27.858Z,13.35
2022-10-23T02:26:27.744Z,13.45
2022-10-23T02:27:04.099Z,13.48
2022-10-23T02:27:40.756Z,13.77
2022-10-23T02:28:17.991Z,13.38
2022-10-23T02:28:54.292Z,14.25
2022-10-23T02:29:33.624Z,14.35
2022-10-23T02:30:09.525Z,13.88
2022-10-23T02:30:45.154Z,13.98
2022-10-23T02:31:20.922Z,13.13
2022-10-23T02:31:52.965Z,12.82
2022-10-23T02:32:27.637Z,13.27
2022-10-23T02:33:01.111Z,13.10
2022-10-23T02:33:34.708Z,13.20
2022-10-23T02:34:06.659Z,13.18
2022-10-23T02:34:38.654Z,13.25
2022-10-23T02:35:11.203Z,14.52
2022-10-23T02:35:43.771Z,14.05
2022-10-23T02:36:20.152Z,13.77
2022-10-23T02:36:52.289Z,14.43
2022-10-23T02:37:25.579Z,13.62
2022-10-23T02:38:00.739Z,13.10
2022-10-23T02:38:33.190Z,13.82
2022-10-23T02:39:05.784Z,13.60
2022-10-23T02:39:37.848Z,14.23
2022-10-23T02:40:11.221Z,13.80
2022-10-23T02:40:46.115Z,13.80
2022-10-23T02:41:39.189Z,14.25
2022-10-23T02:42:38.565Z,13.25
2022-10-23T02:43:36.804Z,12.48
2022-10-23T02:44:30.141Z,12.75
2022-10-23T02:45:10.626Z,12.75
2022-10-23T02:46:02.648Z,13.07
2022-10-23T02:46:56.173Z,12.50
2022-10-23T02:47:48.341Z,12.60
2022-10-23T02:48:33.950Z,13.80
2022-10-23T02:49:24.149Z,11.50
2022-10-23T02:50:27.888Z,13.18
2022-10-23T02:51:10.539Z,11.70
2022-10-23T02:52:01.571Z,12.27
2022-10-23T02:52:38.803Z,12.65
2022-10-23T02:53:21.089Z,12.80
2022-10-23T02:54:02.146Z,12.70
2022-10-23T02:54:54.895Z,13.48
2022-10-23T02:56:03.685Z,12.98
2022-10-23T02:57:23.946Z,13.68
2022-10-23T02:58:05.616Z,13.60
2022-10-23T02:58:48.108Z,13.93
2022-10-23T02:59:28.484Z,12.93
2022-10-23T03:00:08.890Z,13.05
2022-10-23T03:00:46.467Z,13.52
2022-10-23T03:01:23.522Z,13.32
2022-10-23T03:02:04.161Z,13.25
2022-10-23T03:02:41.515Z,13.30
2022-10-23T03:03:19.297Z,12.63
2022-10-23T03:04:01.064Z,13.07
2022-10-23T03:04:33.615Z,13.02
2022-10-23T03:05:10.785Z,12.60
2022-10-23T03:05:44.991Z,12.77
2022-10-23T03:06:19.477Z,13.52
2022-10-23T03:06:52.049Z,13.32
2022-10-23T03:07:26.218Z,12.60
2022-10-23T03:08:05.535Z,12.70
2022-10-23T03:08:43.539Z,12.63
2022-10-23T03:09:15.403Z,11.68
2022-10-23T03:09:47.224Z,12.48
2022-10-23T03:10:19.274Z,13.55
2022-10-23T03:10:51.493Z,12.60
2022-10-23T03:11:23.982Z,12.32
2022-10-23T03:11:55.858Z,12.63
2022-10-23T03:12:28.665Z,13.30
2022-10-23T03:13:00.610Z,12.93
2022-10-23T03:13:34.682Z,13.05
2022-10-23T03:14:07.340Z,13.43
2022-10-23T03:14:39.215Z,12.95
2022-10-23T03:15:12.531Z,12.70
2022-10-23T03:15:44.797Z,12.68
2022-10-23T03:16:16.853Z,12.90
2022-10-23T03:16:55.283Z,12.52
2022-10-23T03:17:27.408Z,13.88
2022-10-23T03:17:59.747Z,13.05
2022-10-23T03:18:31.566Z,14.18
2022-10-23T03:19:03.896Z,14.20
2022-10-23T03:19:36.077Z,14.45
2022-10-23T03:20:10.427Z,13.52
2022-10-23T03:20:42.270Z,12.95
2022-10-23T03:21:15.414Z,14.68
2022-10-23T03:21:47.349Z,14.18
2022-10-23T03:22:19.412Z,14.00
2022-10-23T03:22:52.367Z,14.75
2022-10-23T03:23:24.209Z,13.35
2022-10-23T03:23:56.058Z,13.52
2022-10-23T03:24:28.620Z,13.50
2022-10-23T03:25:01.466Z,13.20
2022-10-23T03:25:34.503Z,13.90
2022-10-23T03:26:06.964Z,13.85
2022-10-23T03:26:39.194Z,14.57
2022-10-23T03:27:13.842Z,13.65
2022-10-23T03:27:45.740Z,14.20
2022-10-23T03:28:19.773Z,14.43
2022-10-23T03:28:51.602Z,15.02
2022-10-23T03:29:24.369Z,13.77
2022-10-23T03:29:56.288Z,15.82
2022-10-23T03:30:28.446Z,15.05
2022-10-23T03:31:02.194Z,15.15
2022-10-23T03:31:34.131Z,14.70
2022-10-23T03:32:06.393Z,14.70
2022-10-23T03:32:38.270Z,15.23
2022-10-23T03:33:10.728Z,16.05
2022-10-23T03:33:42.703Z,15.50
2022-10-23T03:34:15.098Z,15.68
2022-10-23T03:34:47.289Z,14.87
2022-10-23T03:35:19.132Z,15.32
2022-10-23T03:35:51.341Z,15.88
2022-10-23T03:36:23.170Z,16.05
2022-10-23T03:36:55.176Z,16.58
2022-10-23T03:37:27.056Z,16.35
2022-10-23T03:37:58.924Z,15.25
2022-10-23T03:38:30.839Z,16.70
2022-10-23T03:39:04.112Z,16.65
2022-10-23T03:39:36.110Z,17.27
2022-10-23T03:40:08.761Z,16.70
2022-10-23T03:40:40.571Z,16.55
2022-10-23T03:41:12.798Z,16.50
2022-10-23T03:41:44.738Z,17.05
2022-10-23T03:42:17.602Z,17.17
2022-10-23T03:42:49.549Z,16.80
2022-10-23T03:43:23.251Z,16.90
2022-10-23T03:43:55.199Z,17.60
2022-10-23T03:44:27.273Z,17.15
2022-10-23T03:44:59.100Z,16.50
2022-10-23T03:45:32.558Z,17.50
2022-10-23T03:46:09.197Z,17.62
2022-10-23T03:46:41.342Z,16.05
2022-10-23T03:47:13.327Z,16.52
2022-10-23T03:47:46.668Z,16.58
2022-10-23T03:48:18.751Z,15.95
2022-10-23T03:48:50.639Z,16.87
2022-10-23T03:49:23.062Z,16.50
2022-10-23T03:49:54.938Z,17.05
2022-10-23T03:50:28.361Z,17.65
2022-10-23T03:51:00.176Z,16.42
2022-10-23T03:51:32.551Z,16.58
2022-10-23T03:52:05.360Z,17.27
2022-10-23T03:52:37.607Z,16.35
2022-10-23T03:53:09.539Z,17.67
2022-10-23T03:53:41.485Z,18.05
2022-10-23T03:54:13.318Z,17.42
2022-10-23T03:54:45.163Z,17.85
2022-10-23T03:55:17.187Z,17.87
2022-10-23T03:55:48.972Z,17.75
2022-10-23T03:56:21.964Z,15.48
2022-10-23T03:56:57.379Z,15.43
2022-10-23T03:57:30.767Z,14.57
2022-10-23T03:58:03.167Z,15.15
2022-10-23T03:58:35.130Z,15.07
2022-10-23T03:59:06.990Z,13.88
2022-10-23T03:59:38.843Z,14.18
2022-10-23T04:00:11.348Z,15.13
2022-10-23T04:00:48.205Z,14.10
2022-10-23T04:01:20.566Z,14.57
2022-10-23T04:01:52.620Z,13.98
2022-10-23T04:02:24.775Z,14.45
2022-10-23T04:02:56.997Z,14.20
2022-10-23T04:03:28.968Z,14.55
2022-10-23T04:04:01.019Z,14.63
2022-10-23T04:04:33.446Z,14.50
2022-10-23T04:05:06.057Z,14.02
2022-10-23T04:05:39.131Z,14.35
2022-10-23T04:06:11.139Z,14.30
2022-10-23T04:06:43.570Z,14.35
2022-10-23T04:07:15.669Z,14.63
2022-10-23T04:07:47.594Z,13.55
2022-10-23T04:08:20.325Z,14.25
2022-10-23T04:08:53.043Z,14.52
2022-10-23T04:09:24.969Z,15.18
2022-10-23T04:09:56.820Z,15.07
2022-10-23T04:10:28.969Z,15.55
2022-10-23T04:11:00.784Z,15.77
2022-10-23T04:11:33.582Z,14.77
2022-10-23T04:12:06.085Z,15.80
2022-10-23T04:12:38.013Z,14.35
2022-10-23T04:13:11.019Z,15.32
2022-10-23T04:13:42.903Z,14.77
2022-10-23T04:14:14.926Z,14.65
2022-10-23T04:14:46.773Z,14.30
2022-10-23T04:15:18.722Z,15.48
2022-10-23T04:15:52.388Z,15.43
2022-10-23T04:16:25.090Z,15.82
2022-10-23T04:16:56.976Z,16.77
2022-10-23T04:17:29.183Z,16.30
2022-10-23T04:18:01.071Z,15.63
2022-10-23T04:18:32.920Z,15.98
2022-10-23T04:19:04.778Z,16.58
2022-10-23T04:19:36.651Z,17.10
2022-10-23T04:20:09.540Z,16.30
2022-10-23T04:20:41.390Z,15.60
2022-10-23T04:21:13.251Z,15.48
2022-10-23T04:21:45.200Z,15.73
2022-10-23T04:22:17.174Z,15.38
2022-10-23T04:22:49.812Z,15.35
2022-10-23T04:23:21.701Z,16.05
2022-10-23T04:23:53.899Z,16.30
2022-10-23T04:24:28.040Z,16.52
2022-10-23T04:24:59.854Z,16.17
2022-10-23T04:25:32.023Z,15.32
2022-10-23T04:26:04.292Z,16.10
2022-10-23T04:26:37.076Z,15.65
2022-10-23T04:27:09.034Z,16.17
2022-10-23T04:27:41.565Z,16.70
2022-10-23T04:28:14.018Z,16.42
2022-10-23T04:28:46.107Z,16.48
2022-10-23T04:29:18.789Z,17.48
2022-10-23T04:29:52.357Z,17.00
2022-10-23T04:30:26.297Z,16.00
2022-10-23T04:30:58.223Z,15.77
2022-10-23T04:31:30.614Z,16.00
2022-10-23T04:32:02.453Z,16.17
2022-10-23T04:32:34.435Z,15.07
2022-10-23T04:33:06.284Z,15.80
2022-10-23T04:33:39.330Z,15.23
2022-10-23T04:34:11.411Z,16.12
2022-10-23T04:34:43.288Z,16.20
2022-10-23T04:35:15.179Z,15.35
2022-10-23T04:35:47.119Z,15.63
2022-10-23T04:36:19.054Z,14.75
2022-10-23T04:36:50.875Z,15.82
2022-10-23T04:37:22.827Z,15.25
2022-10-23T04:37:54.701Z,14.90
2022-10-23T04:38:28.051Z,14.98
2022-10-23T04:39:00.397Z,14.30
2022-10-23T04:39:32.291Z,15.13
2022-10-23T04:40:04.430Z,15.27
2022-10-23T04:40:40.012Z,13.32
2022-10-23T04:41:11.904Z,14.98
2022-10-23T04:41:43.857Z,14.45
2022-10-23T04:42:15.813Z,14.55
2022-10-23T04:42:47.693Z,15.27
2022-10-23T04:43:19.592Z,14.93
2022-10-23T04:43:51.577Z,14.10
2022-10-23T04:44:23.886Z,15.15
2022-10-23T04:44:55.822Z,15.32
2022-10-23T04:45:28.053Z,14.85
2022-10-23T04:46:00.459Z,14.77
2022-10-23T04:46:32.707Z,15.00
2022-10-23T04:47:04.646Z,13.70
2022-10-23T04:47:37.426Z,14.52
2022-10-23T04:48:09.710Z,14.02
2022-10-23T04:48:43.195Z,15.13
2022-10-23T04:49:16.236Z,14.20
2022-10-23T04:49:49.382Z,13.25
2022-10-23T04:50:22.960Z,13.85
2022-10-23T04:51:10.880Z,12.85
2022-10-23T04:51:43.862Z,13.00
2022-10-23T04:52:16.743Z,13.45
2022-10-23T04:52:49.080Z,14.00
2022-10-23T04:53:26.533Z,12.37
2022-10-23T04:53:59.498Z,13.80
2022-10-23T04:54:39.288Z,13.68
2022-10-23T04:55:12.246Z,12.55
2022-10-23T04:55:55.690Z,13.02
2022-10-23T04:56:27.905Z,12.75
2022-10-23T04:56:59.970Z,13.10
2022-10-23T04:57:32.343Z,12.70
2022-10-23T04:58:04.477Z,12.43
2022-10-23T04:58:37.098Z,12.88
2022-10-23T04:59:09.137Z,12.15
2022-10-23T04:59:41.637Z,12.73
2022-10-23T05:00:16.271Z,12.98
2022-10-23T05:00:49.344Z,12.50
2022-10-23T05:01:25.622Z,12.85
2022-10-23T05:01:57.592Z,12.75
2022-10-23T05:02:29.510Z,13.35
2022-10-23T05:03:01.622Z,12.60
2022-10-23T05:03:35.294Z,12.37
2022-10-23T05:04:08.433Z,13.07
2022-10-23T05:04:43.549Z,12.40
2022-10-23T05:05:18.833Z,12.85
2022-10-23T05:05:54.826Z,13.13
2022-10-23T05:06:26.975Z,13.85
2022-10-23T05:06:59.090Z,13.27
2022-10-23T05:07:31.126Z,12.45
2022-10-23T05:08:03.028Z,13.55
2022-10-23T05:08:35.919Z,13.75
2022-10-23T05:09:08.018Z,13.82
2022-10-23T05:09:40.060Z,15.30
2022-10-23T05:10:12.007Z,14.60
2022-10-23T05:10:44.418Z,14.38
2022-10-23T05:11:16.353Z,15.40
2022-10-23T05:11:48.717Z,15.38
2022-10-23T05:12:20.835Z,13.65
2022-10-23T05:12:53.023Z,14.48
2022-10-23T05:13:24.879Z,14.63
2022-10-23T05:13:56.744Z,14.68
2022-10-23T05:14:28.655Z,15.15
2022-10-23T05:15:01.273Z,13.98
2022-10-23T05:15:33.213Z,15.30
2022-10-23T05:16:05.720Z,15.73
2022-10-23T05:16:46.950Z,15.18
2022-10-23T05:17:26.306Z,15.07
2022-10-23T05:18:17.006Z,15.02
2022-10-23T05:18:49.056Z,15.82
2022-10-23T05:19:24.460Z,15.48
2022-10-23T05:20:00.974Z,14.40
2022-10-23T05:20:36.466Z,14.60
2022-10-23T05:21:25.939Z,15.32
2022-10-23T05:21:58.260Z,16.23
2022-10-23T05:22:33.919Z,15.70
2022-10-23T05:23:11.425Z,15.88
2022-10-23T05:23:44.585Z,14.32
2022-10-23T05:24:18.151Z,13.77
2022-10-23T05:24:57.711Z,13.93
2022-10-23T05:25:30.741Z,13.93
2022-10-23T05:26:04.211Z,13.52
2022-10-23T05:26:36.499Z,14.13
2022-10-23T05:27:08.883Z,14.07
2022-10-23T05:27:43.024Z,14.25
2022-10-23T05:28:15.546Z,14.77
2022-10-23T05:28:47.441Z,15.68
2022-10-23T05:29:20.807Z,13.95
2022-10-23T05:29:52.868Z,14.00
2022-10-23T05:30:25.197Z,14.85
2022-10-23T05:31:00.090Z,13.35
2022-10-23T05:31:34.717Z,14.20
2022-10-23T05:32:12.126Z,13.48
2022-10-23T05:32:44.631Z,13.70
2022-10-23T05:33:17.096Z,12.50
2022-10-23T05:33:49.306Z,13.07
2022-10-23T05:34:25.520Z,13.43
2022-10-23T05:34:58.345Z,12.35
2022-10-23T05:35:31.361Z,13.93
2022-10-23T05:36:03.586Z,12.63
2022-10-23T05:36:37.144Z,13.27
2022-10-23T05:37:11.929Z,11.80
2022-10-23T05:37:46.506Z,12.73
2022-10-23T05:38:19.156Z,13.75
2022-10-23T05:38:51.216Z,12.55
2022-10-23T05:39:23.550Z,12.95
2022-10-23T05:39:58.005Z,13.13
2022-10-23T05:40:29.993Z,12.45
2022-10-23T05:41:03.195Z,13.15
2022-10-23T05:41:35.151Z,11.75
2022-10-23T05:42:07.301Z,11.82
2022-10-23T05:42:41.554Z,11.45
2022-10-23T05:43:15.171Z,12.57
2022-10-23T05:43:50.136Z,12.65
2022-10-23T05:44:22.228Z,12.32
2022-10-23T05:44:55.017Z,12.55
2022-10-23T05:45:26.945Z,13.07
2022-10-23T05:46:07.363Z,13.45
2022-10-23T05:46:42.969Z,12.50
2022-10-23T05:47:15.282Z,13.20
2022-10-23T05:47:49.150Z,12.95
2022-10-23T05:48:33.644Z,13.50
2022-10-23T05:49:06.566Z,14.40
2022-10-23T05:49:39.105Z,14.18
2022-10-23T05:50:11.923Z,15.35
2022-10-23T05:50:44.000Z,13.75
2022-10-23T05:51:22.508Z,14.32
2022-10-23T05:51:55.115Z,13.10
2022-10-23T05:52:27.203Z,13.77
2022-10-23T05:53:00.519Z,12.93
2022-10-23T05:53:33.147Z,11.73
2022-10-23T05:54:08.397Z,12.30
2022-10-23T05:54:40.397Z,12.73
2022-10-23T05:55:16.499Z,12.35
2022-10-23T05:55:49.196Z,12.70
2022-10-23T05:56:21.176Z,12.82
2022-10-23T05:56:55.682Z,11.65
2022-10-23T05:57:27.811Z,11.90
2022-10-23T05:58:04.579Z,12.52
2022-10-23T05:58:39.505Z,12.50
2022-10-23T05:59:11.797Z,12.95
2022-10-23T05:59:43.950Z,13.88
2022-10-23T06:00:16.626Z,12.75
2022-10-23T06:00:57.697Z,12.82
2022-10-23T06:01:37.436Z,13.50
2022-10-23T06:02:09.865Z,13.38
2022-10-23T06:02:46.958Z,13.68
2022-10-23T06:03:19.660Z,13.27
2022-10-23T06:03:52.338Z,13.30
2022-10-23T06:04:25.414Z,12.82
2022-10-23T06:04:58.217Z,12.98
2022-10-23T06:05:31.439Z,12.45
2022-10-23T06:06:06.317Z,13.05
2022-10-23T06:06:38.675Z,13.05
2022-10-23T06:07:10.567Z,12.73
2022-10-23T06:07:42.869Z,14.45
2022-10-23T06:08:15.007Z,13.18
2022-10-23T06:08:47.507Z,14.30
2022-10-23T06:09:19.501Z,13.90
2022-10-23T06:09:52.956Z,14.25
2022-10-23T06:10:25.034Z,14.65
2022-10-23T06:10:57.329Z,14.00
2022-10-23T06:11:29.980Z,14.70
2022-10-23T06:12:02.846Z,14.90
2022-10-23T06:12:35.888Z,14.15
2022-10-23T06:13:08.057Z,15.60
2022-10-23T06:13:43.018Z,15.88
2022-10-23T06:14:15.216Z,15.32
2022-10-23T06:14:48.351Z,15.07
2022-10-23T06:15:20.370Z,15.68
2022-10-23T06:15:53.364Z,15.85
2022-10-23T06:16:26.854Z,15.65
2022-10-23T06:16:59.102Z,17.33
2022-10-23T06:17:31.787Z,18.73
2022-10-23T06:18:04.975Z,19.75
2022-10-23T06:18:37.754Z,20.77
2022-10-23T06:19:12.173Z,20.75
2022-10-23T06:19:46.021Z,22.30
2022-10-23T06:20:18.651Z,20.85
2022-10-23T06:20:53.674Z,21.62
2022-10-23T06:21:26.296Z,20.58
2022-10-23T06:21:58.507Z,21.12
2022-10-23T06:22:30.870Z,21.50
2022-10-23T06:23:08.047Z,19.77
2022-10-23T06:23:43.008Z,19.52
2022-10-23T06:24:17.746Z,17.58
2022-10-23T06:24:49.904Z,17.17
2022-10-23T06:25:23.710Z,17.80
2022-10-23T06:25:56.896Z,16.00
2022-10-23T06:26:29.785Z,17.20
2022-10-23T06:27:02.621Z,17.33
2022-10-23T06:27:37.752Z,17.92
2022-10-23T06:28:10.285Z,17.52
2022-10-23T06:28:42.712Z,17.55
2022-10-23T06:29:14.580Z,17.83
2022-10-23T06:29:47.191Z,17.70
2022-10-23T06:30:19.218Z,17.27
2022-10-23T06:30:51.396Z,16.80
2022-10-23T06:31:27.857Z,16.25
2022-10-23T06:32:00.744Z,16.52
2022-10-23T06:32:33.099Z,18.02
2022-10-23T06:33:06.627Z,17.77
2022-10-23T06:33:38.827Z,18.10
2022-10-23T06:34:11.859Z,17.77
2022-10-23T06:34:43.896Z,18.92
2022-10-23T06:35:15.861Z,17.95
2022-10-23T06:35:48.239Z,18.62
2022-10-23T06:36:20.159Z,18.98
2022-10-23T06:36:52.297Z,19.37
2022-10-23T06:37:26.316Z,18.75
2022-10-23T06:37:58.898Z,18.48
2022-10-23T06:38:37.389Z,19.00
2022-10-23T06:39:10.239Z,19.17
2022-10-23T06:39:45.450Z,18.00
2022-10-23T06:40:17.744Z,18.02
2022-10-23T06:40:57.701Z,19.05
2022-10-23T06:41:29.879Z,17.62
2022-10-23T06:42:01.720Z,17.17
2022-10-23T06:42:36.975Z,18.15
2022-10-23T06:43:12.113Z,17.55
2022-10-23T06:43:48.681Z,17.67
2022-10-23T06:44:20.964Z,18.00
2022-10-23T06:44:53.115Z,16.85
2022-10-23T06:45:30.023Z,17.05
2022-10-23T06:46:04.126Z,17.30
2022-10-23T06:46:39.049Z,17.85
2022-10-23T06:47:14.436Z,17.20
2022-10-23T06:47:52.921Z,17.83
2022-10-23T06:48:26.676Z,17.37
2022-10-23T06:48:59.816Z,17.05
2022-10-23T06:49:31.943Z,17.98
2022-10-23T06:50:05.113Z,17.90
2022-10-23T06:50:38.701Z,18.23
2022-10-23T06:51:14.633Z,18.37
2022-10-23T06:51:46.724Z,19.67
2022-10-23T06:52:41.652Z,18.77
2022-10-23T06:53:12.433Z,18.45
2022-10-23T06:53:46.494Z,19.25
2022-10-23T06:54:19.575Z,19.33
2022-10-23T06:54:53.318Z,17.77
2022-10-23T06:55:25.426Z,18.60
2022-10-23T06:56:01.600Z,18.90
2022-10-23T06:56:35.183Z,18.50
2022-10-23T06:57:09.516Z,17.27
2022-10-23T06:57:44.377Z,18.80
2022-10-23T06:58:16.454Z,17.52
2022-10-23T06:58:51.973Z,16.25
2022-10-23T06:59:25.028Z,16.42
2022-10-23T06:59:57.173Z,17.00
2022-10-23T07:00:29.742Z,16.42
2022-10-23T07:01:07.318Z,16.75
2022-10-23T07:01:39.521Z,17.10
2022-10-23T07:02:11.906Z,16.48
2022-10-23T07:02:44.330Z,16.02
2022-10-23T07:03:16.299Z,15.70
2022-10-23T07:03:48.943Z,16.92
2022-10-23T07:04:22.601Z,15.88
2022-10-23T07:04:54.717Z,15.90
2022-10-23T07:05:26.716Z,15.77
2022-10-23T07:06:03.453Z,16.62
2022-10-23T07:06:35.303Z,16.10
2022-10-23T07:07:07.608Z,15.82
2022-10-23T07:07:39.798Z,15.98
2022-10-23T07:08:12.019Z,15.48
2022-10-23T07:08:44.800Z,15.23
2022-10-23T07:09:18.442Z,15.73
2022-10-23T07:09:53.474Z,15.25
2022-10-23T07:10:25.545Z,14.60
2022-10-23T07:10:58.153Z,14.82
2022-10-23T07:11:30.070Z,14.20
2022-10-23T07:12:02.090Z,14.80
2022-10-23T07:12:36.698Z,15.93
2022-10-23T07:13:10.672Z,15.48
2022-10-23T07:13:44.486Z,16.37
2022-10-23T07:14:16.523Z,16.52
2022-10-23T07:14:48.392Z,17.02
2022-10-23T07:15:20.820Z,17.15
2022-10-23T07:15:53.771Z,18.37
2022-10-23T07:16:27.411Z,18.40
2022-10-23T07:17:00.998Z,18.10
2022-10-23T07:17:33.121Z,17.05
2022-10-23T07:18:06.403Z,16.62
2022-10-23T07:18:41.286Z,14.18
2022-10-23T07:19:15.695Z,13.80
2022-10-23T07:19:49.988Z,13.80
2022-10-23T07:20:22.474Z,13.48
2022-10-23T07:20:59.964Z,13.95
2022-10-23T07:21:35.054Z,14.63
2022-10-23T07:22:10.792Z,14.52
2022-10-23T07:22:51.996Z,14.13
2022-10-23T07:23:28.009Z,14.23
2022-10-23T07:24:01.187Z,13.75
2022-10-23T07:24:37.130Z,14.00
2022-10-23T07:25:09.859Z,14.65
2022-10-23T07:25:42.733Z,13.65
2022-10-23T07:26:15.989Z,14.00
2022-10-23T07:26:47.995Z,14.90
2022-10-23T07:27:20.052Z,13.85
2022-10-23T07:27:55.818Z,14.45
2022-10-23T07:28:28.192Z,15.27
2022-10-23T07:29:00.044Z,15.23
2022-10-23T07:29:33.367Z,15.55
2022-10-23T07:30:05.644Z,15.02
2022-10-23T07:30:38.371Z,15.05
2022-10-23T07:31:11.741Z,14.73
2022-10-23T07:31:47.563Z,15.43
2022-10-23T07:32:21.071Z,14.63
2022-10-23T07:33:00.329Z,15.30
2022-10-23T07:33:34.968Z,15.13
2022-10-23T07:34:07.592Z,15.88
2022-10-23T07:34:39.598Z,15.05
2022-10-23T07:35:50.920Z,16.98
2022-10-23T07:36:23.685Z,15.68
2022-10-23T07:36:57.023Z,18.87
2022-10-23T07:37:30.493Z,18.42
2022-10-23T07:38:02.946Z,18.90